sensor_id;sensor_type;location;lat;lon;timestamp;temperature;humidity
17815;DHT22;9031;50.974;11.330;2023-04-29T00:00:50;13.50;99.90
17815;DHT22;9031;50.974;11.330;2023-04-29T00:03:16;13.40;99.90
17815;DHT22;9031;50.974;11.330;2023-04-29T00:05:43;13.40;99.90
17815;DHT22;9031;50.974;11.330;2023-04-29T00:08:08;13.50;99.90
17815;DHT22;9031;50.974;11.330;2023-04-29T00:10:34;13.50;99.90
17815;DHT22;9031;50.974;11.330;2023-04-29T00:13:00;13.40;99.90
17815;DHT22;9031;50.974;11.330;2023-04-29T00:15:26;13.40;99.90
17815;DHT22;9031;50.974;11.330;2023-04-29T00:17:52;13.40;99.90
17815;DHT22;9031;50.974;11.330;2023-04-29T00:20:17;13.40;99.90
17815;DHT22;9031;50.974;11.330;2023-04-29T00:22:43;13.30;99.90
17815;DHT22;9031;50.974;11.330;2023-04-29T00:25:09;13.30;99.90
17815;DHT22;9031;50.974;11.330;2023-04-29T00:27:35;13.30;99.90
17815;DHT22;9031;50.974;11.330;2023-04-29T00:30:00;13.20;99.90
17815;DHT22;9031;50.974;11.330;2023-04-29T00:32:26;13.30;99.90
17815;DHT22;9031;50.974;11.330;2023-04-29T00:34:52;13.20;99.90
17815;DHT22;9031;50.974;11.330;2023-04-29T00:37:17;13.20;99.90
17815;DHT22;9031;50.974;11.330;2023-04-29T00:39:43;13.20;99.90
17815;DHT22;9031;50.974;11.330;2023-04-29T00:42:08;13.10;99.90
17815;DHT22;9031;50.974;11.330;2023-04-29T00:44:34;13.10;99.90
17815;DHT22;9031;50.974;11.330;2023-04-29T00:47:00;13.00;99.90
17815;DHT22;9031;50.974;11.330;2023-04-29T00:49:25;13.10;99.90
17815;DHT22;9031;50.974;11.330;2023-04-29T00:51:52;13.10;99.90
17815;DHT22;9031;50.974;11.330;2023-04-29T00:54:19;13.00;99.90
17815;DHT22;9031;50.974;11.330;2023-04-29T00:56:45;13.00;99.90
17815;DHT22;9031;50.974;11.330;2023-04-29T00:59:11;13.00;99.90
17815;DHT22;9031;50.974;11.330;2023-04-29T01:01:40;13.00;99.90
17815;DHT22;9031;50.974;11.330;2023-04-29T01:04:05;12.90;99.90
17815;DHT22;9031;50.974;11.330;2023-04-29T01:09:28;12.90;99.90
17815;DHT22;9031;50.974;11.330;2023-04-29T01:12:20;12.80;99.90
17815;DHT22;9031;50.974;11.330;2023-04-29T01:15:09;12.80;99.90
17815;DHT22;9031;50.974;11.330;2023-04-29T01:17:59;12.70;99.90
17815;DHT22;9031;50.974;11.330;2023-04-29T01:20:25;12.60;99.90
17815;DHT22;9031;50.974;11.330;2023-04-29T01:22:51;12.60;99.90
17815;DHT22;9031;50.974;11.330;2023-04-29T01:25:17;12.50;99.90
17815;DHT22;9031;50.974;11.330;2023-04-29T01:27:56;12.50;99.90
17815;DHT22;9031;50.974;11.330;2023-04-29T01:30:33;12.60;99.90
17815;DHT22;9031;50.974;11.330;2023-04-29T01:36:07;12.50;99.90
17815;DHT22;9031;50.974;11.330;2023-04-29T01:41:18;12.50;99.90
17815;DHT22;9031;50.974;11.330;2023-04-29T01:43:50;12.50;99.90
17815;DHT22;9031;50.974;11.330;2023-04-29T01:46:17;12.50;99.90
17815;DHT22;9031;50.974;11.330;2023-04-29T01:48:45;12.50;99.90
17815;DHT22;9031;50.974;11.330;2023-04-29T01:51:10;12.50;99.90
17815;DHT22;9031;50.974;11.330;2023-04-29T01:53:36;12.60;99.90
17815;DHT22;9031;50.974;11.330;2023-04-29T01:56:05;12.60;99.90
17815;DHT22;9031;50.974;11.330;2023-04-29T01:58:31;12.60;99.90
17815;DHT22;9031;50.974;11.330;2023-04-29T02:00:56;12.70;99.90
17815;DHT22;9031;50.974;11.330;2023-04-29T02:03:22;12.70;99.90
17815;DHT22;9031;50.974;11.330;2023-04-29T02:05:47;12.60;99.90
17815;DHT22;9031;50.974;11.330;2023-04-29T02:08:15;12.60;99.90
17815;DHT22;9031;50.974;11.330;2023-04-29T02:10:41;12.60;99.90
17815;DHT22;9031;50.974;11.330;2023-04-29T02:13:06;12.50;99.90
17815;DHT22;9031;50.974;11.330;2023-04-29T02:15:32;12.50;99.90
17815;DHT22;9031;50.974;11.330;2023-04-29T02:17:57;12.50;99.90
17815;DHT22;9031;50.974;11.330;2023-04-29T02:20:23;12.50;99.90
17815;DHT22;9031;50.974;11.330;2023-04-29T02:22:48;12.40;99.90
17815;DHT22;9031;50.974;11.330;2023-04-29T02:25:14;12.40;99.90
17815;DHT22;9031;50.974;11.330;2023-04-29T02:27:39;12.30;99.90
17815;DHT22;9031;50.974;11.330;2023-04-29T02:30:05;12.30;99.90
17815;DHT22;9031;50.974;11.330;2023-04-29T02:32:31;12.20;99.90
17815;DHT22;9031;50.974;11.330;2023-04-29T02:34:56;12.30;99.90
17815;DHT22;9031;50.974;11.330;2023-04-29T02:37:22;12.30;99.90
17815;DHT22;9031;50.974;11.330;2023-04-29T02:39:48;12.20;99.90
17815;DHT22;9031;50.974;11.330;2023-04-29T02:42:13;12.20;99.90
17815;DHT22;9031;50.974;11.330;2023-04-29T02:44:39;12.20;99.90
17815;DHT22;9031;50.974;11.330;2023-04-29T02:47:05;12.10;99.90
17815;DHT22;9031;50.974;11.330;2023-04-29T02:49:31;12.10;99.90
17815;DHT22;9031;50.974;11.330;2023-04-29T02:51:56;12.10;99.90
17815;DHT22;9031;50.974;11.330;2023-04-29T02:54:22;12.00;99.90
17815;DHT22;9031;50.974;11.330;2023-04-29T02:56:48;12.00;99.90
17815;DHT22;9031;50.974;11.330;2023-04-29T02:59:13;12.10;99.90
17815;DHT22;9031;50.974;11.330;2023-04-29T03:01:39;12.10;99.90
17815;DHT22;9031;50.974;11.330;2023-04-29T03:04:04;12.20;99.90
17815;DHT22;9031;50.974;11.330;2023-04-29T03:06:31;12.30;99.90
17815;DHT22;9031;50.974;11.330;2023-04-29T03:08:56;12.30;99.90
17815;DHT22;9031;50.974;11.330;2023-04-29T03:11:22;12.50;99.90
17815;DHT22;9031;50.974;11.330;2023-04-29T03:13:49;12.50;99.90
17815;DHT22;9031;50.974;11.330;2023-04-29T03:16:14;12.50;99.90
17815;DHT22;9031;50.974;11.330;2023-04-29T03:18:44;12.50;99.90
17815;DHT22;9031;50.974;11.330;2023-04-29T03:21:10;12.40;99.90
17815;DHT22;9031;50.974;11.330;2023-04-29T03:23:35;12.40;99.90
17815;DHT22;9031;50.974;11.330;2023-04-29T03:26:03;12.30;99.90
17815;DHT22;9031;50.974;11.330;2023-04-29T03:28:29;12.20;99.90
17815;DHT22;9031;50.974;11.330;2023-04-29T03:30:54;12.10;99.90
17815;DHT22;9031;50.974;11.330;2023-04-29T03:33:21;12.00;99.90
17815;DHT22;9031;50.974;11.330;2023-04-29T03:35:46;11.90;99.90
17815;DHT22;9031;50.974;11.330;2023-04-29T03:38:12;12.00;99.90
17815;DHT22;9031;50.974;11.330;2023-04-29T03:40:37;12.00;99.90
17815;DHT22;9031;50.974;11.330;2023-04-29T03:43:03;11.90;99.90
17815;DHT22;9031;50.974;11.330;2023-04-29T03:45:28;11.80;99.90
17815;DHT22;9031;50.974;11.330;2023-04-29T03:47:54;11.80;99.90
17815;DHT22;9031;50.974;11.330;2023-04-29T03:50:20;11.80;99.90
17815;DHT22;9031;50.974;11.330;2023-04-29T03:52:45;11.80;99.90
17815;DHT22;9031;50.974;11.330;2023-04-29T03:55:11;11.80;99.90
17815;DHT22;9031;50.974;11.330;2023-04-29T03:57:37;11.80;99.90
17815;DHT22;9031;50.974;11.330;2023-04-29T04:00:03;11.80;99.90
17815;DHT22;9031;50.974;11.330;2023-04-29T04:02:29;11.70;99.90
17815;DHT22;9031;50.974;11.330;2023-04-29T04:04:55;11.70;99.90
17815;DHT22;9031;50.974;11.330;2023-04-29T04:07:20;11.70;99.90
17815;DHT22;9031;50.974;11.330;2023-04-29T04:09:46;11.70;99.90
17815;DHT22;9031;50.974;11.330;2023-04-29T04:12:11;11.70;99.90
17815;DHT22;9031;50.974;11.330;2023-04-29T04:14:37;11.80;99.90
17815;DHT22;9031;50.974;11.330;2023-04-29T04:17:02;11.70;99.90
17815;DHT22;9031;50.974;11.330;2023-04-29T04:19:29;11.70;99.90
17815;DHT22;9031;50.974;11.330;2023-04-29T04:21:55;11.60;99.90
17815;DHT22;9031;50.974;11.330;2023-04-29T04:24:21;11.50;99.90
17815;DHT22;9031;50.974;11.330;2023-04-29T04:26:47;11.50;99.90
17815;DHT22;9031;50.974;11.330;2023-04-29T04:29:12;11.60;99.90
17815;DHT22;9031;50.974;11.330;2023-04-29T04:31:38;11.70;99.90
17815;DHT22;9031;50.974;11.330;2023-04-29T04:34:03;11.70;99.90
17815;DHT22;9031;50.974;11.330;2023-04-29T04:36:29;11.70;99.90
17815;DHT22;9031;50.974;11.330;2023-04-29T04:38:55;11.80;99.90
17815;DHT22;9031;50.974;11.330;2023-04-29T04:41:20;11.80;99.90
17815;DHT22;9031;50.974;11.330;2023-04-29T04:43:46;11.80;99.90
17815;DHT22;9031;50.974;11.330;2023-04-29T04:46:13;11.90;99.90
17815;DHT22;9031;50.974;11.330;2023-04-29T04:48:39;11.90;99.90
17815;DHT22;9031;50.974;11.330;2023-04-29T04:51:09;12.00;99.90
17815;DHT22;9031;50.974;11.330;2023-04-29T04:53:35;11.90;99.90
17815;DHT22;9031;50.974;11.330;2023-04-29T04:56:02;11.90;99.90
17815;DHT22;9031;50.974;11.330;2023-04-29T04:58:27;11.90;99.90
17815;DHT22;9031;50.974;11.330;2023-04-29T05:00:53;12.00;99.90
17815;DHT22;9031;50.974;11.330;2023-04-29T05:03:18;12.10;99.90
17815;DHT22;9031;50.974;11.330;2023-04-29T05:05:44;12.10;99.90
17815;DHT22;9031;50.974;11.330;2023-04-29T05:08:09;12.00;99.90
17815;DHT22;9031;50.974;11.330;2023-04-29T05:10:35;12.00;99.90
17815;DHT22;9031;50.974;11.330;2023-04-29T05:13:01;12.00;99.90
17815;DHT22;9031;50.974;11.330;2023-04-29T05:15:27;12.10;99.90
17815;DHT22;9031;50.974;11.330;2023-04-29T05:17:52;12.20;99.90
17815;DHT22;9031;50.974;11.330;2023-04-29T05:20:18;12.20;99.90
17815;DHT22;9031;50.974;11.330;2023-04-29T05:22:45;12.20;99.90
17815;DHT22;9031;50.974;11.330;2023-04-29T05:25:11;12.20;99.90
17815;DHT22;9031;50.974;11.330;2023-04-29T05:27:36;12.20;99.90
17815;DHT22;9031;50.974;11.330;2023-04-29T05:30:02;12.20;99.90
17815;DHT22;9031;50.974;11.330;2023-04-29T05:32:28;12.30;99.90
17815;DHT22;9031;50.974;11.330;2023-04-29T05:34:53;12.30;99.90
17815;DHT22;9031;50.974;11.330;2023-04-29T05:37:19;12.40;99.90
17815;DHT22;9031;50.974;11.330;2023-04-29T05:39:44;12.60;99.90
17815;DHT22;9031;50.974;11.330;2023-04-29T05:42:10;12.60;99.90
17815;DHT22;9031;50.974;11.330;2023-04-29T05:44:35;12.60;99.90
17815;DHT22;9031;50.974;11.330;2023-04-29T05:47:01;12.60;99.90
17815;DHT22;9031;50.974;11.330;2023-04-29T05:49:26;12.60;99.90
17815;DHT22;9031;50.974;11.330;2023-04-29T05:51:52;12.60;99.90
17815;DHT22;9031;50.974;11.330;2023-04-29T05:54:17;12.50;99.90
17815;DHT22;9031;50.974;11.330;2023-04-29T05:56:43;12.50;99.90
17815;DHT22;9031;50.974;11.330;2023-04-29T05:59:08;12.50;99.90
17815;DHT22;9031;50.974;11.330;2023-04-29T06:01:34;12.60;99.90
17815;DHT22;9031;50.974;11.330;2023-04-29T06:03:59;12.60;99.90
17815;DHT22;9031;50.974;11.330;2023-04-29T06:06:25;12.70;99.90
17815;DHT22;9031;50.974;11.330;2023-04-29T06:08:51;12.70;99.90
17815;DHT22;9031;50.974;11.330;2023-04-29T06:11:17;12.70;99.90
17815;DHT22;9031;50.974;11.330;2023-04-29T06:13:42;12.70;99.90
17815;DHT22;9031;50.974;11.330;2023-04-29T06:16:09;12.60;99.90
17815;DHT22;9031;50.974;11.330;2023-04-29T06:18:35;12.50;99.90
17815;DHT22;9031;50.974;11.330;2023-04-29T06:21:02;12.50;99.90
17815;DHT22;9031;50.974;11.330;2023-04-29T06:23:28;12.40;99.90
17815;DHT22;9031;50.974;11.330;2023-04-29T06:25:53;12.50;99.90
17815;DHT22;9031;50.974;11.330;2023-04-29T06:28:19;12.50;99.90
17815;DHT22;9031;50.974;11.330;2023-04-29T06:30:45;12.40;99.90
17815;DHT22;9031;50.974;11.330;2023-04-29T06:33:11;12.40;99.90
17815;DHT22;9031;50.974;11.330;2023-04-29T06:35:40;12.40;99.90
17815;DHT22;9031;50.974;11.330;2023-04-29T06:38:05;12.40;99.90
17815;DHT22;9031;50.974;11.330;2023-04-29T06:40:33;12.40;99.90
17815;DHT22;9031;50.974;11.330;2023-04-29T06:42:58;12.40;99.90
17815;DHT22;9031;50.974;11.330;2023-04-29T06:45:24;12.30;99.90
17815;DHT22;9031;50.974;11.330;2023-04-29T06:47:49;12.40;99.90
17815;DHT22;9031;50.974;11.330;2023-04-29T06:50:15;12.50;99.90
17815;DHT22;9031;50.974;11.330;2023-04-29T06:52:40;12.30;99.90
17815;DHT22;9031;50.974;11.330;2023-04-29T06:55:06;12.20;99.90
17815;DHT22;9031;50.974;11.330;2023-04-29T06:57:32;12.10;99.90
17815;DHT22;9031;50.974;11.330;2023-04-29T06:59:58;12.10;99.90
17815;DHT22;9031;50.974;11.330;2023-04-29T07:02:23;12.10;99.90
17815;DHT22;9031;50.974;11.330;2023-04-29T07:04:49;12.20;99.90
17815;DHT22;9031;50.974;11.330;2023-04-29T07:07:15;12.20;99.90
17815;DHT22;9031;50.974;11.330;2023-04-29T07:09:41;12.30;99.90
17815;DHT22;9031;50.974;11.330;2023-04-29T07:12:06;12.20;99.90
17815;DHT22;9031;50.974;11.330;2023-04-29T07:14:32;12.20;99.90
17815;DHT22;9031;50.974;11.330;2023-04-29T07:16:57;12.30;99.90
17815;DHT22;9031;50.974;11.330;2023-04-29T07:19:23;12.40;99.90
17815;DHT22;9031;50.974;11.330;2023-04-29T07:21:48;12.40;99.90
17815;DHT22;9031;50.974;11.330;2023-04-29T07:24:14;12.50;99.90
17815;DHT22;9031;50.974;11.330;2023-04-29T07:26:41;12.70;99.90
17815;DHT22;9031;50.974;11.330;2023-04-29T07:29:07;12.80;99.90
17815;DHT22;9031;50.974;11.330;2023-04-29T07:31:32;12.90;99.90
17815;DHT22;9031;50.974;11.330;2023-04-29T07:33:58;13.00;99.90
17815;DHT22;9031;50.974;11.330;2023-04-29T07:36:24;13.00;99.90
17815;DHT22;9031;50.974;11.330;2023-04-29T07:38:49;12.90;99.90
17815;DHT22;9031;50.974;11.330;2023-04-29T07:41:15;12.90;99.90
17815;DHT22;9031;50.974;11.330;2023-04-29T07:43:40;12.90;99.90
17815;DHT22;9031;50.974;11.330;2023-04-29T07:46:06;12.90;99.90
17815;DHT22;9031;50.974;11.330;2023-04-29T07:48:36;12.90;99.90
17815;DHT22;9031;50.974;11.330;2023-04-29T07:51:02;13.10;99.90
17815;DHT22;9031;50.974;11.330;2023-04-29T07:53:28;13.20;99.90
17815;DHT22;9031;50.974;11.330;2023-04-29T07:55:53;13.20;99.90
17815;DHT22;9031;50.974;11.330;2023-04-29T07:58:19;13.30;99.90
17815;DHT22;9031;50.974;11.330;2023-04-29T08:00:44;13.20;99.90
17815;DHT22;9031;50.974;11.330;2023-04-29T08:03:11;13.20;99.90
17815;DHT22;9031;50.974;11.330;2023-04-29T08:05:37;13.10;99.90
17815;DHT22;9031;50.974;11.330;2023-04-29T08:08:02;13.00;99.90
17815;DHT22;9031;50.974;11.330;2023-04-29T08:10:28;13.20;99.90
17815;DHT22;9031;50.974;11.330;2023-04-29T08:12:53;13.20;99.90
17815;DHT22;9031;50.974;11.330;2023-04-29T08:15:19;13.30;99.90
17815;DHT22;9031;50.974;11.330;2023-04-29T08:17:44;13.40;99.90
17815;DHT22;9031;50.974;11.330;2023-04-29T08:20:10;13.40;99.90
17815;DHT22;9031;50.974;11.330;2023-04-29T08:22:36;13.20;99.90
17815;DHT22;9031;50.974;11.330;2023-04-29T08:25:03;13.20;99.90
17815;DHT22;9031;50.974;11.330;2023-04-29T08:27:29;12.90;99.90
17815;DHT22;9031;50.974;11.330;2023-04-29T08:29:55;12.90;99.90
17815;DHT22;9031;50.974;11.330;2023-04-29T08:32:21;12.90;99.90
17815;DHT22;9031;50.974;11.330;2023-04-29T08:34:47;12.90;99.90
17815;DHT22;9031;50.974;11.330;2023-04-29T08:37:12;12.90;99.90
17815;DHT22;9031;50.974;11.330;2023-04-29T08:39:39;12.80;99.90
17815;DHT22;9031;50.974;11.330;2023-04-29T08:42:08;12.70;99.90
17815;DHT22;9031;50.974;11.330;2023-04-29T08:44:35;12.60;99.90
17815;DHT22;9031;50.974;11.330;2023-04-29T08:47:02;12.60;99.90
17815;DHT22;9031;50.974;11.330;2023-04-29T08:49:30;12.80;99.90
17815;DHT22;9031;50.974;11.330;2023-04-29T08:51:58;12.80;99.90
17815;DHT22;9031;50.974;11.330;2023-04-29T08:54:23;12.80;99.90
17815;DHT22;9031;50.974;11.330;2023-04-29T08:56:50;12.80;99.90
17815;DHT22;9031;50.974;11.330;2023-04-29T08:59:16;13.00;99.90
17815;DHT22;9031;50.974;11.330;2023-04-29T09:01:43;13.10;99.90
17815;DHT22;9031;50.974;11.330;2023-04-29T09:04:16;13.40;99.90
17815;DHT22;9031;50.974;11.330;2023-04-29T09:06:44;13.20;99.90
17815;DHT22;9031;50.974;11.330;2023-04-29T09:09:11;13.30;99.90
17815;DHT22;9031;50.974;11.330;2023-04-29T09:11:39;13.20;99.90
17815;DHT22;9031;50.974;11.330;2023-04-29T09:14:04;13.20;99.90
17815;DHT22;9031;50.974;11.330;2023-04-29T09:16:30;13.40;99.90
17815;DHT22;9031;50.974;11.330;2023-04-29T09:18:56;13.50;99.90
17815;DHT22;9031;50.974;11.330;2023-04-29T09:21:22;13.50;99.90
17815;DHT22;9031;50.974;11.330;2023-04-29T09:23:56;13.50;99.90
17815;DHT22;9031;50.974;11.330;2023-04-29T09:26:22;13.80;99.50
17815;DHT22;9031;50.974;11.330;2023-04-29T09:29:07;14.10;98.90
17815;DHT22;9031;50.974;11.330;2023-04-29T09:31:34;14.40;98.30
17815;DHT22;9031;50.974;11.330;2023-04-29T09:33:59;14.60;97.10
17815;DHT22;9031;50.974;11.330;2023-04-29T09:36:44;14.60;97.00
17815;DHT22;9031;50.974;11.330;2023-04-29T09:39:12;14.30;97.80
17815;DHT22;9031;50.974;11.330;2023-04-29T09:44:17;14.10;97.90
17815;DHT22;9031;50.974;11.330;2023-04-29T09:46:42;14.00;98.60
17815;DHT22;9031;50.974;11.330;2023-04-29T09:49:22;14.20;98.10
17815;DHT22;9031;50.974;11.330;2023-04-29T09:54:28;14.10;98.20
17815;DHT22;9031;50.974;11.330;2023-04-29T09:56:55;14.30;97.60
17815;DHT22;9031;50.974;11.330;2023-04-29T09:59:21;14.50;97.20
17815;DHT22;9031;50.974;11.330;2023-04-29T10:01:48;14.40;97.60
17815;DHT22;9031;50.974;11.330;2023-04-29T10:04:15;14.10;98.20
17815;DHT22;9031;50.974;11.330;2023-04-29T10:06:43;14.30;98.00
17815;DHT22;9031;50.974;11.330;2023-04-29T10:09:12;14.30;97.90
17815;DHT22;9031;50.974;11.330;2023-04-29T10:11:43;14.40;97.50
17815;DHT22;9031;50.974;11.330;2023-04-29T10:14:12;14.50;96.90
17815;DHT22;9031;50.974;11.330;2023-04-29T10:16:50;14.50;97.20
17815;DHT22;9031;50.974;11.330;2023-04-29T10:19:32;14.70;96.50
17815;DHT22;9031;50.974;11.330;2023-04-29T10:21:59;14.60;96.50
17815;DHT22;9031;50.974;11.330;2023-04-29T10:24:29;14.20;96.90
17815;DHT22;9031;50.974;11.330;2023-04-29T10:26:57;14.00;97.20
17815;DHT22;9031;50.974;11.330;2023-04-29T10:29:24;14.00;97.80
17815;DHT22;9031;50.974;11.330;2023-04-29T10:31:53;14.30;96.80
17815;DHT22;9031;50.974;11.330;2023-04-29T10:34:21;14.30;97.20
17815;DHT22;9031;50.974;11.330;2023-04-29T10:36:48;14.70;97.10
17815;DHT22;9031;50.974;11.330;2023-04-29T10:42:05;14.80;96.00
17815;DHT22;9031;50.974;11.330;2023-04-29T10:50:31;14.20;96.20
17815;DHT22;9031;50.974;11.330;2023-04-29T10:53:00;14.30;95.70
17815;DHT22;9031;50.974;11.330;2023-04-29T10:55:25;14.20;95.70
17815;DHT22;9031;50.974;11.330;2023-04-29T10:57:55;14.40;95.00
17815;DHT22;9031;50.974;11.330;2023-04-29T11:00:29;14.80;95.20
17815;DHT22;9031;50.974;11.330;2023-04-29T11:02:58;15.00;94.90
17815;DHT22;9031;50.974;11.330;2023-04-29T11:05:35;14.90;95.10
17815;DHT22;9031;50.974;11.330;2023-04-29T11:08:20;14.40;95.80
17815;DHT22;9031;50.974;11.330;2023-04-29T11:10:51;14.40;95.50
17815;DHT22;9031;50.974;11.330;2023-04-29T11:13:24;14.10;95.60
17815;DHT22;9031;50.974;11.330;2023-04-29T11:16:06;13.90;95.70
17815;DHT22;9031;50.974;11.330;2023-04-29T11:18:33;13.70;96.40
17815;DHT22;9031;50.974;11.330;2023-04-29T11:23:38;13.50;96.30
17815;DHT22;9031;50.974;11.330;2023-04-29T11:26:05;13.60;96.10
17815;DHT22;9031;50.974;11.330;2023-04-29T11:28:31;13.50;95.90
17815;DHT22;9031;50.974;11.330;2023-04-29T11:30:57;13.40;95.80
17815;DHT22;9031;50.974;11.330;2023-04-29T11:33:24;13.40;95.80
17815;DHT22;9031;50.974;11.330;2023-04-29T11:35:51;13.50;95.70
17815;DHT22;9031;50.974;11.330;2023-04-29T11:38:16;13.50;95.80
17815;DHT22;9031;50.974;11.330;2023-04-29T11:40:48;13.50;95.90
17815;DHT22;9031;50.974;11.330;2023-04-29T11:43:18;13.50;96.20
17815;DHT22;9031;50.974;11.330;2023-04-29T11:45:47;13.30;96.50
17815;DHT22;9031;50.974;11.330;2023-04-29T11:48:23;13.00;97.20
17815;DHT22;9031;50.974;11.330;2023-04-29T11:50:51;12.70;98.30
17815;DHT22;9031;50.974;11.330;2023-04-29T11:53:22;12.50;98.60
17815;DHT22;9031;50.974;11.330;2023-04-29T11:55:49;12.50;98.80
17815;DHT22;9031;50.974;11.330;2023-04-29T11:58:17;12.60;98.30
17815;DHT22;9031;50.974;11.330;2023-04-29T12:00:42;12.60;98.20
17815;DHT22;9031;50.974;11.330;2023-04-29T12:03:13;12.70;98.10
17815;DHT22;9031;50.974;11.330;2023-04-29T12:06:01;12.50;98.30
17815;DHT22;9031;50.974;11.330;2023-04-29T12:08:27;12.60;98.20
17815;DHT22;9031;50.974;11.330;2023-04-29T12:10:55;12.40;97.90
17815;DHT22;9031;50.974;11.330;2023-04-29T12:13:23;12.30;98.20
17815;DHT22;9031;50.974;11.330;2023-04-29T12:15:50;12.40;98.10
17815;DHT22;9031;50.974;11.330;2023-04-29T12:18:17;12.40;97.80
17815;DHT22;9031;50.974;11.330;2023-04-29T12:20:44;12.50;97.60
17815;DHT22;9031;50.974;11.330;2023-04-29T12:23:11;12.50;97.70
17815;DHT22;9031;50.974;11.330;2023-04-29T12:25:37;12.50;97.30
17815;DHT22;9031;50.974;11.330;2023-04-29T12:28:03;12.60;97.00
17815;DHT22;9031;50.974;11.330;2023-04-29T12:30:29;12.70;97.00
17815;DHT22;9031;50.974;11.330;2023-04-29T12:32:55;12.80;97.00
17815;DHT22;9031;50.974;11.330;2023-04-29T12:35:20;12.90;96.60
17815;DHT22;9031;50.974;11.330;2023-04-29T12:37:49;12.90;96.60
17815;DHT22;9031;50.974;11.330;2023-04-29T12:40:15;12.70;97.10
17815;DHT22;9031;50.974;11.330;2023-04-29T12:42:42;12.70;97.00
17815;DHT22;9031;50.974;11.330;2023-04-29T12:45:25;12.60;97.10
17815;DHT22;9031;50.974;11.330;2023-04-29T12:47:50;12.40;97.30
17815;DHT22;9031;50.974;11.330;2023-04-29T12:50:16;12.30;97.50
17815;DHT22;9031;50.974;11.330;2023-04-29T12:52:42;12.40;97.60
17815;DHT22;9031;50.974;11.330;2023-04-29T12:55:07;12.60;97.40
17815;DHT22;9031;50.974;11.330;2023-04-29T12:57:33;12.80;97.00
17815;DHT22;9031;50.974;11.330;2023-04-29T12:59:58;12.90;96.80
17815;DHT22;9031;50.974;11.330;2023-04-29T13:02:24;13.00;96.50
17815;DHT22;9031;50.974;11.330;2023-04-29T13:04:50;13.20;96.20
17815;DHT22;9031;50.974;11.330;2023-04-29T13:07:15;13.20;96.20
17815;DHT22;9031;50.974;11.330;2023-04-29T13:09:41;13.20;96.40
17815;DHT22;9031;50.974;11.330;2023-04-29T13:12:06;13.20;96.30
17815;DHT22;9031;50.974;11.330;2023-04-29T13:14:33;13.30;96.20
17815;DHT22;9031;50.974;11.330;2023-04-29T13:16:58;13.40;96.00
17815;DHT22;9031;50.974;11.330;2023-04-29T13:19:24;13.70;95.70
17815;DHT22;9031;50.974;11.330;2023-04-29T13:21:50;13.90;95.10
17815;DHT22;9031;50.974;11.330;2023-04-29T13:24:15;14.10;95.00
17815;DHT22;9031;50.974;11.330;2023-04-29T13:26:43;13.90;95.30
17815;DHT22;9031;50.974;11.330;2023-04-29T13:29:08;13.90;94.50
17815;DHT22;9031;50.974;11.330;2023-04-29T13:31:34;14.10;94.70
17815;DHT22;9031;50.974;11.330;2023-04-29T13:33:59;14.40;93.30
17815;DHT22;9031;50.974;11.330;2023-04-29T13:36:25;14.40;93.60
17815;DHT22;9031;50.974;11.330;2023-04-29T13:38:52;14.40;93.70
17815;DHT22;9031;50.974;11.330;2023-04-29T13:41:17;14.50;93.60
17815;DHT22;9031;50.974;11.330;2023-04-29T13:43:43;14.20;93.80
17815;DHT22;9031;50.974;11.330;2023-04-29T13:46:08;14.00;94.20
17815;DHT22;9031;50.974;11.330;2023-04-29T13:48:34;13.90;94.50
17815;DHT22;9031;50.974;11.330;2023-04-29T13:51:00;13.80;95.40
17815;DHT22;9031;50.974;11.330;2023-04-29T13:53:26;13.60;95.50
17815;DHT22;9031;50.974;11.330;2023-04-29T13:55:51;13.50;95.60
17815;DHT22;9031;50.974;11.330;2023-04-29T13:58:17;13.30;95.80
17815;DHT22;9031;50.974;11.330;2023-04-29T14:00:42;13.10;96.30
17815;DHT22;9031;50.974;11.330;2023-04-29T14:03:08;13.00;96.50
17815;DHT22;9031;50.974;11.330;2023-04-29T14:05:34;12.90;94.70
17815;DHT22;9031;50.974;11.330;2023-04-29T14:07:59;12.70;94.70
17815;DHT22;9031;50.974;11.330;2023-04-29T14:10:25;12.70;94.70
17815;DHT22;9031;50.974;11.330;2023-04-29T14:12:50;12.60;94.80
17815;DHT22;9031;50.974;11.330;2023-04-29T14:15:16;12.80;94.90
17815;DHT22;9031;50.974;11.330;2023-04-29T14:17:41;13.00;94.70
17815;DHT22;9031;50.974;11.330;2023-04-29T14:20:07;13.20;94.10
17815;DHT22;9031;50.974;11.330;2023-04-29T14:22:33;13.30;94.00
17815;DHT22;9031;50.974;11.330;2023-04-29T14:24:59;13.60;93.80
17815;DHT22;9031;50.974;11.330;2023-04-29T14:27:24;13.80;93.10
17815;DHT22;9031;50.974;11.330;2023-04-29T14:29:49;13.90;92.80
17815;DHT22;9031;50.974;11.330;2023-04-29T14:32:15;14.00;93.00
17815;DHT22;9031;50.974;11.330;2023-04-29T14:34:40;14.00;92.80
17815;DHT22;9031;50.974;11.330;2023-04-29T14:37:06;13.80;92.90
17815;DHT22;9031;50.974;11.330;2023-04-29T14:39:32;13.80;92.60
17815;DHT22;9031;50.974;11.330;2023-04-29T14:41:58;13.60;92.70
17815;DHT22;9031;50.974;11.330;2023-04-29T14:44:23;13.40;93.20
17815;DHT22;9031;50.974;11.330;2023-04-29T14:46:49;13.40;93.50
17815;DHT22;9031;50.974;11.330;2023-04-29T14:49:14;13.50;93.20
17815;DHT22;9031;50.974;11.330;2023-04-29T14:51:40;13.50;93.40
17815;DHT22;9031;50.974;11.330;2023-04-29T14:54:05;13.50;93.00
17815;DHT22;9031;50.974;11.330;2023-04-29T14:56:31;13.40;93.00
17815;DHT22;9031;50.974;11.330;2023-04-29T14:58:56;13.30;93.10
17815;DHT22;9031;50.974;11.330;2023-04-29T15:01:22;13.40;93.00
17815;DHT22;9031;50.974;11.330;2023-04-29T15:03:47;13.40;92.40
17815;DHT22;9031;50.974;11.330;2023-04-29T15:06:13;13.40;92.50
17815;DHT22;9031;50.974;11.330;2023-04-29T15:08:39;13.40;92.60
17815;DHT22;9031;50.974;11.330;2023-04-29T15:11:04;13.40;92.50
17815;DHT22;9031;50.974;11.330;2023-04-29T15:13:30;13.40;92.60
17815;DHT22;9031;50.974;11.330;2023-04-29T15:15:55;13.40;92.90
17815;DHT22;9031;50.974;11.330;2023-04-29T15:18:21;13.30;93.00
17815;DHT22;9031;50.974;11.330;2023-04-29T15:20:48;13.30;93.30
17815;DHT22;9031;50.974;11.330;2023-04-29T15:23:15;13.30;93.30
17815;DHT22;9031;50.974;11.330;2023-04-29T15:25:40;13.20;93.50
17815;DHT22;9031;50.974;11.330;2023-04-29T15:28:06;13.10;93.80
17815;DHT22;9031;50.974;11.330;2023-04-29T15:30:32;13.10;94.30
17815;DHT22;9031;50.974;11.330;2023-04-29T15:32:57;13.00;94.00
17815;DHT22;9031;50.974;11.330;2023-04-29T15:35:23;13.00;93.80
17815;DHT22;9031;50.974;11.330;2023-04-29T15:37:48;13.00;94.20
17815;DHT22;9031;50.974;11.330;2023-04-29T15:40:14;13.10;93.90
17815;DHT22;9031;50.974;11.330;2023-04-29T15:42:40;13.10;93.90
17815;DHT22;9031;50.974;11.330;2023-04-29T15:45:06;13.00;94.30
17815;DHT22;9031;50.974;11.330;2023-04-29T15:47:33;13.10;94.30
17815;DHT22;9031;50.974;11.330;2023-04-29T15:49:58;13.10;94.70
17815;DHT22;9031;50.974;11.330;2023-04-29T15:52:24;13.10;94.90